sensor_id;sensor_type;location;lat;lon;timestamp;pressure;altitude;pressure_sealevel;temperature;humidity
26487;BME280;14425;56.136;40.360;2023-02-17T00:01:49;100393.88;;;-0.48;57.99
26487;BME280;14425;56.136;40.360;2023-02-17T00:04:15;100389.59;;;-0.85;58.55
26487;BME280;14425;56.136;40.360;2023-02-17T00:06:40;100395.66;;;-0.75;59.27
26487;BME280;14425;56.136;40.360;2023-02-17T00:09:06;100389.47;;;-0.59;58.61
26487;BME280;14425;56.136;40.360;2023-02-17T00:11:32;100388.03;;;-0.47;57.85
26487;BME280;14425;56.136;40.360;2023-02-17T00:13:58;100393.00;;;-0.76;59.52
26487;BME280;14425;56.136;40.360;2023-02-17T00:16:25;100399.69;;;-0.77;59.16
26487;BME280;14425;56.136;40.360;2023-02-17T00:19:00;100398.09;;;-0.57;59.01
26487;BME280;14425;56.136;40.360;2023-02-17T00:21:28;100394.59;;;-0.49;59.00
26487;BME280;14425;56.136;40.360;2023-02-17T00:23:56;100391.28;;;-0.20;57.60
26487;BME280;14425;56.136;40.360;2023-02-17T00:26:22;100384.16;;;-0.71;57.60
26487;BME280;14425;56.136;40.360;2023-02-17T00:28:48;100389.75;;;-0.84;58.75
26487;BME280;14425;56.136;40.360;2023-02-17T00:31:23;100383.50;;;-0.60;58.72
26487;BME280;14425;56.136;40.360;2023-02-17T00:33:48;100384.72;;;-0.65;58.28
26487;BME280;14425;56.136;40.360;2023-02-17T00:36:16;100384.47;;;-0.49;58.57
26487;BME280;14425;56.136;40.360;2023-02-17T00:38:42;100374.84;;;-0.62;59.13
26487;BME280;14425;56.136;40.360;2023-02-17T00:41:08;100384.63;;;-0.75;59.04
26487;BME280;14425;56.136;40.360;2023-02-17T00:43:33;100386.44;;;-0.55;58.74
26487;BME280;14425;56.136;40.360;2023-02-17T00:45:59;100379.03;;;-0.34;58.05
26487;BME280;14425;56.136;40.360;2023-02-17T00:48:28;100375.81;;;-0.70;57.77
26487;BME280;14425;56.136;40.360;2023-02-17T00:50:53;100381.28;;;-0.93;59.17
26487;BME280;14425;56.136;40.360;2023-02-17T00:53:19;100377.47;;;-1.07;59.98
26487;BME280;14425;56.136;40.360;2023-02-17T00:55:44;100372.81;;;-0.66;59.46
26487;BME280;14425;56.136;40.360;2023-02-17T00:58:10;100371.66;;;-0.69;59.11
26487;BME280;14425;56.136;40.360;2023-02-17T01:00:35;100368.53;;;-0.48;58.02
26487;BME280;14425;56.136;40.360;2023-02-17T01:03:01;100368.75;;;-0.91;58.26
26487;BME280;14425;56.136;40.360;2023-02-17T01:05:26;100363.56;;;-0.93;59.03
26487;BME280;14425;56.136;40.360;2023-02-17T01:07:52;100354.66;;;-0.70;58.51
26487;BME280;14425;56.136;40.360;2023-02-17T01:10:18;100358.78;;;-0.62;59.18
26487;BME280;14425;56.136;40.360;2023-02-17T01:12:44;100363.66;;;-1.10;59.06
26487;BME280;14425;56.136;40.360;2023-02-17T01:15:09;100372.00;;;-0.84;59.52
26487;BME280;14425;56.136;40.360;2023-02-17T01:17:35;100365.16;;;-0.85;59.30
26487;BME280;14425;56.136;40.360;2023-02-17T01:20:00;100369.63;;;-0.82;58.94
26487;BME280;14425;56.136;40.360;2023-02-17T01:22:26;100366.38;;;-0.90;59.47
26487;BME280;14425;56.136;40.360;2023-02-17T01:24:51;100358.22;;;-0.68;58.85
26487;BME280;14425;56.136;40.360;2023-02-17T01:27:17;100356.59;;;-0.96;59.22
26487;BME280;14425;56.136;40.360;2023-02-17T01:29:44;100357.22;;;-0.51;58.74
26487;BME280;14425;56.136;40.360;2023-02-17T01:32:10;100359.13;;;-0.49;58.13
26487;BME280;14425;56.136;40.360;2023-02-17T01:34:36;100367.63;;;-0.48;58.44
26487;BME280;14425;56.136;40.360;2023-02-17T01:37:02;100357.38;;;-0.31;58.00
26487;BME280;14425;56.136;40.360;2023-02-17T01:39:27;100365.41;;;-0.26;57.89
26487;BME280;14425;56.136;40.360;2023-02-17T01:41:53;100364.41;;;-0.56;58.05
26487;BME280;14425;56.136;40.360;2023-02-17T01:44:21;100364.63;;;-0.44;58.46
26487;BME280;14425;56.136;40.360;2023-02-17T01:46:54;100369.75;;;-0.53;58.11
26487;BME280;14425;56.136;40.360;2023-02-17T01:49:33;100369.75;;;-0.34;58.06
26487;BME280;14425;56.136;40.360;2023-02-17T01:52:12;100370.50;;;-0.35;57.19
26487;BME280;14425;56.136;40.360;2023-02-17T01:54:51;100372.81;;;-0.47;57.64
26487;BME280;14425;56.136;40.360;2023-02-17T01:57:21;100368.59;;;-0.38;57.82
26487;BME280;14425;56.136;40.360;2023-02-17T01:59:47;100366.63;;;-0.31;57.78
26487;BME280;14425;56.136;40.360;2023-02-17T02:02:13;100376.69;;;-0.23;57.75
26487;BME280;14425;56.136;40.360;2023-02-17T02:04:42;100379.19;;;-0.42;57.64
26487;BME280;14425;56.136;40.360;2023-02-17T02:07:14;100384.63;;;-0.28;57.27
26487;BME280;14425;56.136;40.360;2023-02-17T02:09:42;100376.84;;;-0.21;57.70
26487;BME280;14425;56.136;40.360;2023-02-17T02:12:31;100384.91;;;-0.44;57.58
26487;BME280;14425;56.136;40.360;2023-02-17T02:15:02;100382.25;;;-0.08;57.67
26487;BME280;14425;56.136;40.360;2023-02-17T02:23:53;100378.03;;;-0.64;59.09
26487;BME280;14425;56.136;40.360;2023-02-17T02:29:18;100382.00;;;-0.39;58.17
26487;BME280;14425;56.136;40.360;2023-02-17T02:35:35;100382.50;;;-0.98;59.46
26487;BME280;14425;56.136;40.360;2023-02-17T02:41:10;100376.59;;;-0.52;58.56
26487;BME280;14425;56.136;40.360;2023-02-17T02:43:37;100374.91;;;-0.24;58.07
26487;BME280;14425;56.136;40.360;2023-02-17T02:46:03;100373.66;;;-0.38;57.46
26487;BME280;14425;56.136;40.360;2023-02-17T02:48:29;100373.88;;;-0.45;57.80
26487;BME280;14425;56.136;40.360;2023-02-17T03:01:44;100381.44;;;-1.28;59.18
26487;BME280;14425;56.136;40.360;2023-02-17T03:04:16;100380.94;;;-1.15;60.00
26487;BME280;14425;56.136;40.360;2023-02-17T03:09:25;100378.56;;;-1.14;59.39
26487;BME280;14425;56.136;40.360;2023-02-17T03:11:52;100380.00;;;-1.07;60.01
26487;BME280;14425;56.136;40.360;2023-02-17T03:14:20;100383.56;;;-1.05;59.95
26487;BME280;14425;56.136;40.360;2023-02-17T03:16:45;100379.38;;;-0.68;59.08
26487;BME280;14425;56.136;40.360;2023-02-17T03:19:13;100376.38;;;-0.64;58.70
26487;BME280;14425;56.136;40.360;2023-02-17T03:24:10;100379.00;;;-0.81;58.55
26487;BME280;14425;56.136;40.360;2023-02-17T03:26:35;100378.63;;;-0.67;58.54
26487;BME280;14425;56.136;40.360;2023-02-17T03:29:01;100371.44;;;-0.62;59.30
26487;BME280;14425;56.136;40.360;2023-02-17T03:31:27;100378.59;;;-0.86;59.35
26487;BME280;14425;56.136;40.360;2023-02-17T03:33:52;100391.41;;;-1.21;59.05
26487;BME280;14425;56.136;40.360;2023-02-17T03:36:18;100377.41;;;-0.89;60.10
26487;BME280;14425;56.136;40.360;2023-02-17T03:38:43;100381.81;;;-1.15;59.23
26487;BME280;14425;56.136;40.360;2023-02-17T03:41:09;100382.50;;;-0.98;59.87
26487;BME280;14425;56.136;40.360;2023-02-17T03:43:34;100375.19;;;-0.95;60.76
26487;BME280;14425;56.136;40.360;2023-02-17T03:46:00;100377.38;;;-1.62;61.08
26487;BME280;14425;56.136;40.360;2023-02-17T03:48:25;100372.59;;;-1.14;60.92
26487;BME280;14425;56.136;40.360;2023-02-17T03:50:51;100373.94;;;-0.81;59.58
26487;BME280;14425;56.136;40.360;2023-02-17T03:53:16;100373.28;;;-0.98;59.76
26487;BME280;14425;56.136;40.360;2023-02-17T03:55:42;100379.41;;;-0.77;59.95
26487;BME280;14425;56.136;40.360;2023-02-17T03:58:10;100377.88;;;-0.66;58.83
26487;BME280;14425;56.136;40.360;2023-02-17T04:00:36;100372.88;;;-0.75;58.69
26487;BME280;14425;56.136;40.360;2023-02-17T04:03:01;100375.00;;;-0.60;58.92
26487;BME280;14425;56.136;40.360;2023-02-17T04:05:27;100373.91;;;-0.72;59.09
26487;BME280;14425;56.136;40.360;2023-02-17T04:07:52;100382.88;;;-0.57;58.87
26487;BME280;14425;56.136;40.360;2023-02-17T04:10:18;100383.88;;;-0.46;58.82
26487;BME280;14425;56.136;40.360;2023-02-17T04:12:43;100379.97;;;-0.70;59.21
26487;BME280;14425;56.136;40.360;2023-02-17T04:15:09;100377.06;;;-0.56;59.13
26487;BME280;14425;56.136;40.360;2023-02-17T04:17:36;100387.50;;;-0.81;59.05
26487;BME280;14425;56.136;40.360;2023-02-17T04:20:03;100388.22;;;-0.73;59.10
26487;BME280;14425;56.136;40.360;2023-02-17T04:22:29;100384.84;;;-0.63;60.17
26487;BME280;14425;56.136;40.360;2023-02-17T04:24:54;100396.25;;;-0.77;59.05
26487;BME280;14425;56.136;40.360;2023-02-17T04:27:20;100393.91;;;-0.57;59.63
26487;BME280;14425;56.136;40.360;2023-02-17T04:29:45;100394.91;;;-0.46;58.92
26487;BME280;14425;56.136;40.360;2023-02-17T04:32:11;100386.81;;;-0.42;59.79
26487;BME280;14425;56.136;40.360;2023-02-17T04:34:36;100386.75;;;-0.80;59.26
26487;BME280;14425;56.136;40.360;2023-02-17T04:37:02;100384.03;;;-0.72;59.14
26487;BME280;14425;56.136;40.360;2023-02-17T04:39:27;100386.91;;;-0.87;60.17
26487;BME280;14425;56.136;40.360;2023-02-17T04:41:53;100385.41;;;-0.76;59.47
26487;BME280;14425;56.136;40.360;2023-02-17T04:44:18;100381.03;;;-1.05;61.11
26487;BME280;14425;56.136;40.360;2023-02-17T04:46:44;100382.59;;;-1.16;61.84
26487;BME280;14425;56.136;40.360;2023-02-17T04:49:09;100393.41;;;-0.99;61.23
26487;BME280;14425;56.136;40.360;2023-02-17T04:51:35;100382.06;;;-0.94;60.41
26487;BME280;14425;56.136;40.360;2023-02-17T04:54:01;100387.28;;;-0.73;59.80
26487;BME280;14425;56.136;40.360;2023-02-17T04:56:26;100383.81;;;-0.65;59.54
26487;BME280;14425;56.136;40.360;2023-02-17T04:58:52;100394.84;;;-0.65;59.47
26487;BME280;14425;56.136;40.360;2023-02-17T05:01:17;100393.56;;;-1.06;60.38
26487;BME280;14425;56.136;40.360;2023-02-17T05:03:42;100397.69;;;-0.89;60.76
26487;BME280;14425;56.136;40.360;2023-02-17T05:06:08;100392.00;;;-0.59;60.64
26487;BME280;14425;56.136;40.360;2023-02-17T05:08:33;100396.50;;;-0.65;60.57
26487;BME280;14425;56.136;40.360;2023-02-17T05:10:59;100397.81;;;-0.60;60.50
26487;BME280;14425;56.136;40.360;2023-02-17T05:13:25;100396.50;;;-0.65;60.40
26487;BME280;14425;56.136;40.360;2023-02-17T05:15:51;100392.44;;;-0.63;59.93
26487;BME280;14425;56.136;40.360;2023-02-17T05:18:17;100398.75;;;-0.68;58.34
26487;BME280;14425;56.136;40.360;2023-02-17T05:20:42;100394.75;;;-0.75;59.96
26487;BME280;14425;56.136;40.360;2023-02-17T05:23:08;100387.56;;;-0.43;59.98
26487;BME280;14425;56.136;40.360;2023-02-17T05:25:33;100388.25;;;-0.54;59.62
26487;BME280;14425;56.136;40.360;2023-02-17T05:27:59;100393.81;;;-0.39;59.20
26487;BME280;14425;56.136;40.360;2023-02-17T05:30:25;100390.28;;;-0.50;59.21
26487;BME280;14425;56.136;40.360;2023-02-17T05:32:50;100381.56;;;-0.34;59.34
26487;BME280;14425;56.136;40.360;2023-02-17T05:35:16;100390.06;;;-0.15;58.33
26487;BME280;14425;56.136;40.360;2023-02-17T05:37:41;100388.94;;;-0.27;58.50
26487;BME280;14425;56.136;40.360;2023-02-17T05:40:07;100396.13;;;-0.32;58.49
26487;BME280;14425;56.136;40.360;2023-02-17T05:42:33;100387.59;;;-0.05;58.15
26487;BME280;14425;56.136;40.360;2023-02-17T05:44:58;100390.03;;;-0.34;58.74
26487;BME280;14425;56.136;40.360;2023-02-17T05:47:24;100393.44;;;-0.33;58.84
26487;BME280;14425;56.136;40.360;2023-02-17T05:49:49;100393.69;;;-0.03;58.53
26487;BME280;14425;56.136;40.360;2023-02-17T05:52:15;100396.69;;;0.12;56.98
26487;BME280;14425;56.136;40.360;2023-02-17T05:54:42;100391.28;;;-0.01;57.52
26487;BME280;14425;56.136;40.360;2023-02-17T05:57:08;100398.81;;;-0.30;57.21
26487;BME280;14425;56.136;40.360;2023-02-17T05:59:33;100395.66;;;-0.09;57.55
26487;BME280;14425;56.136;40.360;2023-02-17T06:01:59;100404.16;;;-0.46;58.31
26487;BME280;14425;56.136;40.360;2023-02-17T06:04:24;100398.09;;;-0.57;59.50
26487;BME280;14425;56.136;40.360;2023-02-17T06:06:50;100400.31;;;-0.13;58.92
26487;BME280;14425;56.136;40.360;2023-02-17T06:09:15;100402.22;;;0.27;58.29
26487;BME280;14425;56.136;40.360;2023-02-17T06:11:41;100401.25;;;0.35;56.59
26487;BME280;14425;56.136;40.360;2023-02-17T06:14:06;100399.00;;;0.39;56.93
26487;BME280;14425;56.136;40.360;2023-02-17T06:16:32;100400.63;;;-0.57;58.48
26487;BME280;14425;56.136;40.360;2023-02-17T06:18:57;100411.09;;;-0.63;59.19
26487;BME280;14425;56.136;40.360;2023-02-17T06:21:24;100412.66;;;-0.27;58.81
26487;BME280;14425;56.136;40.360;2023-02-17T06:23:50;100423.63;;;0.02;57.41
26487;BME280;14425;56.136;40.360;2023-02-17T06:26:15;100420.81;;;-0.21;57.82
26487;BME280;14425;56.136;40.360;2023-02-17T06:28:42;100420.22;;;-0.18;58.14
26487;BME280;14425;56.136;40.360;2023-02-17T06:31:08;100422.94;;;0.13;58.32
26487;BME280;14425;56.136;40.360;2023-02-17T06:33:34;100425.63;;;0.33;57.56
26487;BME280;14425;56.136;40.360;2023-02-17T06:35:59;100422.47;;;0.17;57.57
26487;BME280;14425;56.136;40.360;2023-02-17T06:38:25;100421.69;;;0.18;57.36
26487;BME280;14425;56.136;40.360;2023-02-17T06:40:50;100434.69;;;0.02;57.68
26487;BME280;14425;56.136;40.360;2023-02-17T06:43:16;100423.63;;;0.02;57.25
26487;BME280;14425;56.136;40.360;2023-02-17T06:45:41;100435.25;;;0.38;57.60
26487;BME280;14425;56.136;40.360;2023-02-17T06:48:07;100435.00;;;-0.04;58.14
26487;BME280;14425;56.136;40.360;2023-02-17T06:50:32;100431.31;;;0.12;58.03
26487;BME280;14425;56.136;40.360;2023-02-17T06:52:58;100431.16;;;0.48;57.61
26487;BME280;14425;56.136;40.360;2023-02-17T06:55:23;100434.66;;;0.69;56.32
26487;BME280;14425;56.136;40.360;2023-02-17T06:57:49;100435.19;;;0.76;56.38
26487;BME280;14425;56.136;40.360;2023-02-17T07:00:14;100430.13;;;0.76;55.70
26487;BME280;14425;56.136;40.360;2023-02-17T07:02:40;100430.41;;;0.60;56.05
26487;BME280;14425;56.136;40.360;2023-02-17T07:05:07;100426.78;;;0.37;56.40
26487;BME280;14425;56.136;40.360;2023-02-17T07:07:32;100430.91;;;0.85;55.88
26487;BME280;14425;56.136;40.360;2023-02-17T07:09:58;100423.22;;;1.04;55.79
26487;BME280;14425;56.136;40.360;2023-02-17T07:12:24;100415.47;;;1.02;55.54
26487;BME280;14425;56.136;40.360;2023-02-17T07:14:51;100424.38;;;0.20;56.72
26487;BME280;14425;56.136;40.360;2023-02-17T07:17:16;100416.00;;;0.69;56.61
26487;BME280;14425;56.136;40.360;2023-02-17T07:19:42;100428.19;;;0.44;56.91
26487;BME280;14425;56.136;40.360;2023-02-17T07:22:07;100415.47;;;1.02;56.20
26487;BME280;14425;56.136;40.360;2023-02-17T07:24:33;100417.25;;;1.03;55.14
26487;BME280;14425;56.136;40.360;2023-02-17T07:26:58;100420.84;;;1.26;55.16
26487;BME280;14425;56.136;40.360;2023-02-17T07:29:25;100421.63;;;1.35;54.53
26487;BME280;14425;56.136;40.360;2023-02-17T07:31:50;100414.34;;;1.19;55.09
26487;BME280;14425;56.136;40.360;2023-02-17T07:34:16;100415.22;;;1.09;55.24
26487;BME280;14425;56.136;40.360;2023-02-17T07:36:42;100419.06;;;1.15;55.29
26487;BME280;14425;56.136;40.360;2023-02-17T07:39:07;100403.44;;;1.31;54.51
26487;BME280;14425;56.136;40.360;2023-02-17T07:41:33;100410.97;;;1.50;54.31
26487;BME280;14425;56.136;40.360;2023-02-17T07:43:58;100412.13;;;1.53;54.26
26487;BME280;14425;56.136;40.360;2023-02-17T07:46:25;100413.13;;;1.65;53.50
26487;BME280;14425;56.136;40.360;2023-02-17T07:48:51;100408.56;;;1.61;53.77
26487;BME280;14425;56.136;40.360;2023-02-17T07:51:19;100414.78;;;1.85;53.32
26487;BME280;14425;56.136;40.360;2023-02-17T07:53:46;100411.72;;;1.90;53.06
26487;BME280;14425;56.136;40.360;2023-02-17T07:56:13;100406.38;;;1.97;52.80
26487;BME280;14425;56.136;40.360;2023-02-17T07:58:41;100406.75;;;1.81;52.54
26487;BME280;14425;56.136;40.360;2023-02-17T08:01:12;100405.72;;;2.10;52.24
26487;BME280;14425;56.136;40.360;2023-02-17T08:03:38;100408.66;;;1.94;52.72
26487;BME280;14425;56.136;40.360;2023-02-17T08:06:21;100407.25;;;2.08;52.77
26487;BME280;14425;56.136;40.360;2023-02-17T08:08:48;100410.22;;;1.81;52.84
26487;BME280;14425;56.136;40.360;2023-02-17T08:11:32;100403.94;;;1.98;52.50
26487;BME280;14425;56.136;40.360;2023-02-17T08:14:17;100406.72;;;2.12;52.17
26487;BME280;14425;56.136;40.360;2023-02-17T08:16:44;100404.13;;;2.32;51.81
26487;BME280;14425;56.136;40.360;2023-02-17T08:19:10;100403.28;;;2.54;51.20
26487;BME280;14425;56.136;40.360;2023-02-17T08:21:35;100402.59;;;1.81;50.67
26487;BME280;14425;56.136;40.360;2023-02-17T08:24:01;100400.63;;;1.89;52.49
26487;BME280;14425;56.136;40.360;2023-02-17T08:26:26;100408.94;;;1.87;52.40
26487;BME280;14425;56.136;40.360;2023-02-17T08:28:52;100401.38;;;2.09;52.17
26487;BME280;14425;56.136;40.360;2023-02-17T08:31:37;100396.72;;;1.82;52.21
26487;BME280;14425;56.136;40.360;2023-02-17T08:34:07;100398.22;;;2.11;52.07
26487;BME280;14425;56.136;40.360;2023-02-17T08:36:33;100398.28;;;2.33;51.35
26487;BME280;14425;56.136;40.360;2023-02-17T08:39:02;100394.94;;;2.45;51.66
26487;BME280;14425;56.136;40.360;2023-02-17T08:41:31;100402.91;;;2.59;50.93
26487;BME280;14425;56.136;40.360;2023-02-17T08:43:59;100396.41;;;2.85;51.22
26487;BME280;14425;56.136;40.360;2023-02-17T08:46:25;100393.34;;;2.89;50.49
26487;BME280;14425;56.136;40.360;2023-02-17T08:48:51;100396.63;;;3.10;50.91
26487;BME280;14425;56.136;40.360;2023-02-17T08:51:19;100396.06;;;3.03;50.33
26487;BME280;14425;56.136;40.360;2023-02-17T08:53:51;100392.97;;;2.52;51.39
26487;BME280;14425;56.136;40.360;2023-02-17T08:56:17;100397.81;;;2.82;51.53
26487;BME280;14425;56.136;40.360;2023-02-17T08:58:42;100391.59;;;3.00;50.22
26487;BME280;14425;56.136;40.360;2023-02-17T09:01:08;100384.84;;;2.78;51.21
26487;BME280;14425;56.136;40.360;2023-02-17T09:03:35;100385.38;;;2.74;51.30
26487;BME280;14425;56.136;40.360;2023-02-17T09:06:03;100388.00;;;2.54;51.93
26487;BME280;14425;56.136;40.360;2023-02-17T09:08:29;100392.59;;;2.58;51.49
26487;BME280;14425;56.136;40.360;2023-02-17T09:10:54;100390.41;;;2.85;51.89
26487;BME280;14425;56.136;40.360;2023-02-17T09:13:20;100380.88;;;2.82;51.40
26487;BME280;14425;56.136;40.360;2023-02-17T09:15:46;100376.03;;;3.07;51.78
26487;BME280;14425;56.136;40.360;2023-02-17T09:18:11;100379.97;;;2.59;51.11
26487;BME280;14425;56.136;40.360;2023-02-17T09:20:39;100382.72;;;2.40;52.05
26487;BME280;14425;56.136;40.360;2023-02-17T09:23:05;100381.72;;;2.71;51.67
26487;BME280;14425;56.136;40.360;2023-02-17T09:25:32;100385.94;;;2.92;51.48
26487;BME280;14425;56.136;40.360;2023-02-17T09:27:57;100383.53;;;2.84;51.61
26487;BME280;14425;56.136;40.360;2023-02-17T09:30:23;100386.72;;;3.25;51.54
26487;BME280;14425;56.136;40.360;2023-02-17T09:32:48;100382.97;;;2.98;50.88
26487;BME280;14425;56.136;40.360;2023-02-17T09:35:16;100382.31;;;3.01;51.75
26487;BME280;14425;56.136;40.360;2023-02-17T09:37:50;100384.34;;;2.50;51.44
26487;BME280;14425;56.136;40.360;2023-02-17T09:40:21;100376.31;;;2.78;51.46
26487;BME280;14425;56.136;40.360;2023-02-17T09:42:48;100359.50;;;3.02;51.15
26487;BME280;14425;56.136;40.360;2023-02-17T09:45:21;100356.28;;;3.05;51.58
26487;BME280;14425;56.136;40.360;2023-02-17T09:48:00;100351.09;;;2.81;51.50
26487;BME280;14425;56.136;40.360;2023-02-17T09:50:36;100340.91;;;3.15;50.72
26487;BME280;14425;56.136;40.360;2023-02-17T09:55:47;100338.13;;;3.34;50.55
26487;BME280;14425;56.136;40.360;2023-02-17T09:58:39;100335.59;;;3.58;49.95
26487;BME280;14425;56.136;40.360;2023-02-17T10:01:09;100330.84;;;3.62;49.68
26487;BME280;14425;56.136;40.360;2023-02-17T10:03:51;100332.50;;;3.16;49.84
26487;BME280;14425;56.136;40.360;2023-02-17T10:06:28;100329.94;;;3.50;50.49
26487;BME280;14425;56.136;40.360;2023-02-17T10:12:17;100332.78;;;4.00;49.46
26487;BME280;14425;56.136;40.360;2023-02-17T10:14:52;100326.09;;;4.14;49.14
26487;BME280;14425;56.136;40.360;2023-02-17T10:20:46;100315.00;;;4.25;48.55
26487;BME280;14425;56.136;40.360;2023-02-17T10:23:24;100323.66;;;4.04;49.28
26487;BME280;14425;56.136;40.360;2023-02-17T10:28:49;100310.72;;;4.50;49.19
26487;BME280;14425;56.136;40.360;2023-02-17T10:36:58;100298.19;;;7.48;47.04
26487;BME280;14425;56.136;40.360;2023-02-17T10:41:56;100283.81;;;8.43;42.34
26487;BME280;14425;56.136;40.360;2023-02-17T10:44:23;100289.56;;;8.07;43.31
26487;BME280;14425;56.136;40.360;2023-02-17T10:46:52;100283.69;;;8.56;42.37
26487;BME280;14425;56.136;40.360;2023-02-17T10:49:29;100278.72;;;8.92;42.11
26487;BME280;14425;56.136;40.360;2023-02-17T10:52:00;100274.13;;;9.72;41.80
26487;BME280;14425;56.136;40.360;2023-02-17T10:54:31;100272.06;;;10.37;40.48
26487;BME280;14425;56.136;40.360;2023-02-17T10:57:01;100268.00;;;9.88;39.89
26487;BME280;14425;56.136;40.360;2023-02-17T10:59:32;100265.63;;;10.28;39.48
26487;BME280;14425;56.136;40.360;2023-02-17T11:02:56;100266.59;;;10.48;39.89
26487;BME280;14425;56.136;40.360;2023-02-17T11:04:56;100266.31;;;10.62;39.13
26487;BME280;14425;56.136;40.360;2023-02-17T11:07:38;100264.13;;;9.78;39.58
26487;BME280;14425;56.136;40.360;2023-02-17T11:10:28;100263.06;;;10.85;38.78
26487;BME280;14425;56.136;40.360;2023-02-17T11:12:55;100252.16;;;10.34;39.57
26487;BME280;14425;56.136;40.360;2023-02-17T11:15:26;100260.00;;;10.55;38.08
26487;BME280;14425;56.136;40.360;2023-02-17T11:17:52;100257.69;;;10.06;39.24
26487;BME280;14425;56.136;40.360;2023-02-17T11:22:59;100259.19;;;10.76;39.16
26487;BME280;14425;56.136;40.360;2023-02-17T11:25:28;100254.66;;;10.70;38.22
26487;BME280;14425;56.136;40.360;2023-02-17T11:27:56;100259.47;;;10.82;38.17
26487;BME280;14425;56.136;40.360;2023-02-17T11:30:23;100246.78;;;11.06;38.13
26487;BME280;14425;56.136;40.360;2023-02-17T11:32:49;100246.72;;;10.85;38.37
26487;BME280;14425;56.136;40.360;2023-02-17T11:38:00;100246.00;;;11.49;37.36
26487;BME280;14425;56.136;40.360;2023-02-17T11:40:31;100239.91;;;11.06;37.85
26487;BME280;14425;56.136;40.360;2023-02-17T11:43:01;100242.13;;;10.99;37.28
26487;BME280;14425;56.136;40.360;2023-02-17T11:45:34;100245.41;;;10.56;38.79
26487;BME280;14425;56.136;40.360;2023-02-17T11:56:46;100242.66;;;11.31;36.87
26487;BME280;14425;56.136;40.360;2023-02-17T11:59:21;100240.84;;;11.08;36.69
26487;BME280;14425;56.136;40.360;2023-02-17T12:04:29;100236.03;;;10.20;38.18
26487;BME280;14425;56.136;40.360;2023-02-17T12:16:03;100249.31;;;8.23;41.17
26487;BME280;14425;56.136;40.360;2023-02-17T12:26:35;100252.50;;;6.83;51.06
26487;BME280;14425;56.136;40.360;2023-02-17T12:29:36;100242.47;;;6.73;50.51
26487;BME280;14425;56.136;40.360;2023-02-17T12:32:38;100234.88;;;7.47;49.75
26487;BME280;14425;56.136;40.360;2023-02-17T12:35:41;100239.13;;;5.12;46.41
26487;BME280;14425;56.136;40.360;2023-02-17T12:38:17;100235.31;;;6.25;48.42
26487;BME280;14425;56.136;40.360;2023-02-17T12:43:51;100245.09;;;4.49;55.07
26487;BME280;14425;56.136;40.360;2023-02-17T12:46:40;100245.47;;;3.81;55.07
26487;BME280;14425;56.136;40.360;2023-02-17T12:49:20;100252.66;;;2.59;51.30
26487;BME280;14425;56.136;40.360;2023-02-17T12:54:42;100240.03;;;3.64;53.86
26487;BME280;14425;56.136;40.360;2023-02-17T12:59:37;100243.22;;;2.58;50.52
26487;BME280;14425;56.136;40.360;2023-02-17T13:02:08;100235.72;;;2.38;57.48
26487;BME280;14425;56.136;40.360;2023-02-17T13:04:35;100239.63;;;1.47;57.29
26487;BME280;14425;56.136;40.360;2023-02-17T13:07:41;100232.78;;;1.46;57.74
26487;BME280;14425;56.136;40.360;2023-02-17T13:13:00;100228.53;;;0.84;61.59
26487;BME280;14425;56.136;40.360;2023-02-17T13:15:32;100231.09;;;1.57;65.80
26487;BME280;14425;56.136;40.360;2023-02-17T13:18:04;100231.31;;;0.77;60.58
26487;BME280;14425;56.136;40.360;2023-02-17T13:23:12;100228.19;;;0.29;61.54
26487;BME280;14425;56.136;40.360;2023-02-17T13:25:38;100228.34;;;-0.57;63.86
26487;BME280;14425;56.136;40.360;2023-02-17T13:28:31;100236.72;;;-0.58;65.08
26487;BME280;14425;56.136;40.360;2023-02-17T13:31:08;100232.94;;;0.06;73.04
26487;BME280;14425;56.136;40.360;2023-02-17T13:33:40;100232.78;;;0.44;65.96
26487;BME280;14425;56.136;40.360;2023-02-17T13:41:32;100224.84;;;0.70;71.66
26487;BME280;14425;56.136;40.360;2023-02-17T13:43:58;100223.56;;;0.85;68.26
26487;BME280;14425;56.136;40.360;2023-02-17T13:46:25;100216.81;;;0.96;67.61
26487;BME280;14425;56.136;40.360;2023-02-17T13:49:03;100220.13;;;0.64;63.48
26487;BME280;14425;56.136;40.360;2023-02-17T13:51:31;100228.44;;;0.22;70.29
26487;BME280;14425;56.136;40.360;2023-02-17T13:54:04;100214.19;;;0.04;73.92
26487;BME280;14425;56.136;40.360;2023-02-17T13:56:30;100220.03;;;0.23;72.60
26487;BME280;14425;56.136;40.360;2023-02-17T13:59:12;100211.22;;;0.49;69.84
26487;BME280;14425;56.136;40.360;2023-02-17T14:01:43;100212.44;;;1.46;73.53
26487;BME280;14425;56.136;40.360;2023-02-17T14:04:22;100198.69;;;2.19;68.91
26487;BME280;14425;56.136;40.360;2023-02-17T14:06:48;100202.16;;;2.10;62.15
26487;BME280;14425;56.136;40.360;2023-02-17T14:09:28;100206.81;;;1.93;65.80
26487;BME280;14425;56.136;40.360;2023-02-17T14:11:55;100207.34;;;2.55;73.32
26487;BME280;14425;56.136;40.360;2023-02-17T14:14:28;100203.25;;;2.91;64.61
26487;BME280;14425;56.136;40.360;2023-02-17T14:17:07;100217.59;;;0.95;65.58
26487;BME280;14425;56.136;40.360;2023-02-17T14:19:47;100204.47;;;2.07;69.79
26487;BME280;14425;56.136;40.360;2023-02-17T14:22:33;100217.81;;;1.29;68.83
26487;BME280;14425;56.136;40.360;2023-02-17T14:25:10;100208.66;;;1.74;69.68
26487;BME280;14425;56.136;40.360;2023-02-17T14:27:44;100204.22;;;2.82;66.83
26487;BME280;14425;56.136;40.360;2023-02-17T14:30:46;100210.16;;;3.75;63.61
26487;BME280;14425;56.136;40.360;2023-02-17T14:34:04;100208.63;;;3.89;62.72
26487;BME280;14425;56.136;40.360;2023-02-17T14:36:34;100215.84;;;3.47;64.34
26487;BME280;14425;56.136;40.360;2023-02-17T14:39:03;100211.84;;;3.39;65.49
26487;BME280;14425;56.136;40.360;2023-02-17T14:41:57;100218.59;;;2.47;56.71